Time;durP1;ratioP1;P1;durP2;ratioP2;P2;SDS_P1;SDS_P2;PMS_P1;PMS_P2;Temp;Humidity;BMP_temperature;BMP_pressure;BME280_temperature;BME280_humidity;BME280_pressure;Samples;Min_cycle;Max_cycle;Signal;HPM_P1;HPM_P2
2022/03/06 00:00:36;;;;;;;3.37;3.10;;;25.70;42.20;;;;;;5034529;28;20439;-86
2022/03/06 00:03:04;;;;;;;3.30;3.10;;;25.70;42.20;;;;;;5034052;28;20454;-88
2022/03/06 00:05:31;;;;;;;2.87;2.67;;;25.70;42.20;;;;;;5034130;28;20482;-88
2022/03/06 00:07:59;;;;;;;3.63;3.33;;;25.80;42.30;;;;;;5033975;28;20446;-84
2022/03/06 00:10:26;;;;;;;4.10;3.80;;;25.70;42.20;;;;;;5033790;28;20981;-84
2022/03/06 00:12:53;;;;;;;3.47;3.17;;;25.70;42.20;;;;;;5033924;28;20451;-84
2022/03/06 00:15:21;;;;;;;4.00;3.80;;;25.60;42.20;;;;;;5034528;28;20458;-88
2022/03/06 00:17:48;;;;;;;3.27;3.07;;;25.60;42.20;;;;;;5033852;28;21005;-88
2022/03/06 00:20:17;;;;;;;2.70;2.57;;;25.60;42.20;;;;;;5033816;28;20451;-84
2022/03/06 00:22:44;;;;;;;3.47;3.27;;;25.60;42.20;;;;;;5033844;28;20798;-88
2022/03/06 00:25:11;;;;;;;3.73;3.50;;;25.60;42.20;;;;;;5033943;28;20446;-84
2022/03/06 00:27:37;;;;;;;3.33;3.13;;;25.60;42.20;;;;;;5033616;28;20961;-88
2022/03/06 00:30:06;;;;;;;3.70;3.43;;;25.70;42.30;;;;;;5033736;28;20836;-88
2022/03/06 00:32:33;;;;;;;3.40;3.20;;;25.60;42.20;;;;;;5033571;28;20938;-84
2022/03/06 00:35:00;;;;;;;2.83;2.63;;;25.60;42.20;;;;;;5033783;28;20426;-88
2022/03/06 00:37:28;;;;;;;3.30;3.10;;;25.60;42.20;;;;;;5033764;28;20482;-84
2022/03/06 00:39:55;;;;;;;3.23;3.03;;;25.50;42.10;;;;;;5033468;28;20474;-86
2022/03/06 00:42:21;;;;;;;3.67;3.37;;;25.50;42.10;;;;;;5033639;28;20803;-88
2022/03/06 00:44:48;;;;;;;3.20;3.00;;;25.50;42.10;;;;;;5033521;28;20431;-84
2022/03/06 00:47:15;;;;;;;3.37;3.17;;;25.50;42.10;;;;;;5033631;28;20442;-88
2022/03/06 00:49:41;;;;;;;3.13;2.93;;;25.50;42.10;;;;;;5033831;28;20441;-88
2022/03/06 00:52:08;;;;;;;3.57;3.37;;;25.70;42.30;;;;;;5044078;28;20482;-84
2022/03/06 00:54:36;;;;;;;2.80;2.60;;;25.50;42.20;;;;;;5053791;28;20453;-84
2022/03/06 00:57:03;;;;;;;3.30;3.10;;;25.50;42.10;;;;;;5053409;28;20477;-84
2022/03/06 00:59:34;;;;;;;3.80;3.33;;;25.50;42.20;;;;;;5053351;28;20441;-88
2022/03/06 01:02:02;;;;;;;2.90;2.70;;;25.50;42.10;;;;;;5053339;28;20446;-84
2022/03/06 01:04:28;;;;;;;3.10;2.80;;;25.50;42.10;;;;;;5053008;28;20430;-84
2022/03/06 01:06:55;;;;;;;3.30;3.10;;;25.50;42.10;;;;;;5055671;28;20448;-86
2022/03/06 01:09:22;;;;;;;3.63;3.40;;;25.50;42.10;;;;;;5057379;28;20434;-88
2022/03/06 01:11:51;;;;;;;3.13;2.93;;;25.40;42.10;;;;;;5057201;28;20789;-88
2022/03/06 01:14:18;;;;;;;3.57;3.33;;;25.40;42.10;;;;;;5057349;28;20532;-89
2022/03/06 01:16:45;;;;;;;3.47;3.27;;;25.40;42.10;;;;;;5056885;28;21031;-83
2022/03/06 01:19:12;;;;;;;3.70;3.40;;;25.40;42.10;;;;;;5057248;28;20448;-84
2022/03/06 01:21:38;;;;;;;5.00;3.60;;;25.40;42.10;;;;;;5056977;28;20445;-88
2022/03/06 01:24:06;;;;;;;3.20;3.00;;;25.40;42.10;;;;;;5057189;28;20441;-84
2022/03/06 01:26:32;;;;;;;2.77;2.60;;;25.40;42.10;;;;;;5057074;28;20425;-84
2022/03/06 01:29:00;;;;;;;3.00;2.80;;;25.40;42.10;;;;;;5056983;28;20433;-84
2022/03/06 01:31:27;;;;;;;3.77;3.50;;;25.40;42.10;;;;;;5056955;28;20448;-84
2022/03/06 01:33:54;;;;;;;6.90;3.90;;;25.40;42.10;;;;;;5057070;28;20969;-88
2022/03/06 01:36:21;;;;;;;3.60;3.40;;;25.40;42.10;;;;;;5056931;28;20481;-88
2022/03/06 01:38:47;;;;;;;3.23;3.03;;;25.40;42.10;;;;;;5056803;28;20516;-84
2022/03/06 01:41:14;;;;;;;3.20;3.00;;;25.40;42.10;;;;;;5056736;28;20461;-87
2022/03/06 01:43:41;;;;;;;3.97;3.67;;;25.40;42.10;;;;;;5056682;28;20520;-84
2022/03/06 01:46:09;;;;;;;3.20;3.00;;;25.40;42.10;;;;;;5056517;28;20445;-85
2022/03/06 01:48:36;;;;;;;3.70;3.40;;;25.40;42.10;;;;;;5056563;28;20442;-84
2022/03/06 01:51:02;;;;;;;3.10;2.90;;;25.30;42.00;;;;;;5056535;28;20446;-85
2022/03/06 01:53:29;;;;;;;3.20;3.00;;;25.30;42.00;;;;;;5056733;28;20438;-84
2022/03/06 01:55:56;;;;;;;3.10;2.90;;;25.30;42.00;;;;;;5056498;28;20448;-84
2022/03/06 01:58:23;;;;;;;3.00;2.77;;;25.30;42.00;;;;;;5056981;28;20445;-88
2022/03/06 02:00:51;;;;;;;3.20;3.00;;;25.30;42.00;;;;;;5056110;28;20450;-88
2022/03/06 02:03:19;;;;;;;4.30;3.83;;;25.30;42.00;;;;;;5056277;28;20437;-89
2022/03/06 02:05:48;;;;;;;3.40;3.20;;;25.30;41.90;;;;;;5055991;28;20924;-87
2022/03/06 02:08:15;;;;;;;3.40;3.20;;;25.20;41.90;;;;;;5056366;28;20532;-83
2022/03/06 02:10:41;;;;;;;4.40;4.10;;;25.20;41.80;;;;;;5056220;28;20453;-84
2022/03/06 02:13:08;;;;;;;3.80;3.60;;;25.30;41.90;;;;;;5056240;28;20513;-84
2022/03/06 02:15:35;;;;;;;3.67;3.37;;;25.20;41.90;;;;;;5055905;28;20441;-84
2022/03/06 02:18:02;;;;;;;3.60;3.33;;;25.30;42.00;;;;;;5055415;28;20497;-88
2022/03/06 02:20:30;;;;;;;3.17;2.97;;;25.20;42.00;;;;;;5055912;28;20438;-84
2022/03/06 02:22:59;;;;;;;3.50;3.30;;;25.20;42.00;;;;;;5056086;28;20468;-84
2022/03/06 02:25:28;;;;;;;3.37;3.17;;;25.20;42.00;;;;;;5055875;28;20454;-83
2022/03/06 02:27:57;;;;;;;3.47;3.20;;;25.20;42.00;;;;;;5055946;28;20449;-84
2022/03/06 02:30:27;;;;;;;3.57;3.37;;;25.20;42.00;;;;;;5055878;28;20446;-87
2022/03/06 02:32:54;;;;;;;4.03;3.73;;;25.20;42.00;;;;;;5055841;28;20449;-84
2022/03/06 02:35:22;;;;;;;3.93;3.63;;;25.30;42.00;;;;;;5055774;28;20452;-88
2022/03/06 02:37:49;;;;;;;3.10;2.90;;;25.20;42.00;;;;;;5055763;28;20836;-83
2022/03/06 02:40:20;;;;;;;3.90;3.70;;;25.20;42.00;;;;;;5055566;28;20462;-84
2022/03/06 02:42:49;;;;;;;3.70;3.40;;;25.20;42.00;;;;;;5055625;28;20445;-87
2022/03/06 02:45:18;;;;;;;3.33;3.13;;;25.20;42.00;;;;;;5055588;28;20430;-84
2022/03/06 02:47:46;;;;;;;3.47;3.27;;;25.20;42.00;;;;;;5055485;28;20448;-84
2022/03/06 02:50:14;;;;;;;3.80;3.60;;;25.20;42.00;;;;;;5055489;28;20438;-85
2022/03/06 02:52:41;;;;;;;3.47;3.27;;;25.20;42.00;;;;;;5039903;28;20809;-89
2022/03/06 02:55:09;;;;;;;3.20;3.00;;;25.20;42.00;;;;;;5035491;28;20446;-84
2022/03/06 02:57:38;;;;;;;3.63;3.33;;;25.20;42.00;;;;;;5035416;28;20490;-84
2022/03/06 03:00:08;;;;;;;3.53;3.23;;;25.20;42.00;;;;;;5035063;28;20446;-84
2022/03/06 03:02:35;;;;;;;4.00;3.70;;;25.20;41.90;;;;;;5035384;28;20446;-83
2022/03/06 03:05:02;;;;;;;3.27;3.07;;;25.20;41.90;;;;;;5035118;28;20817;-88
2022/03/06 03:07:29;;;;;;;3.30;3.10;;;25.20;41.90;;;;;;5035586;28;20438;-84
2022/03/06 03:09:56;;;;;;;3.60;3.30;;;25.30;41.90;;;;;;5035115;28;20454;-84
2022/03/06 03:12:22;;;;;;;2.80;2.60;;;25.20;41.90;;;;;;5035235;28;20439;-89
2022/03/06 03:14:50;;;;;;;3.30;3.10;;;25.20;41.80;;;;;;5035028;28;20439;-88
2022/03/06 03:17:17;;;;;;;3.23;3.03;;;25.20;41.80;;;;;;5035100;28;20475;-84
2022/03/06 03:19:44;;;;;;;3.63;3.37;;;25.20;41.80;;;;;;5034937;28;20822;-87
2022/03/06 03:22:10;;;;;;;3.40;3.20;;;25.20;41.80;;;;;;5035137;28;20443;-88
2022/03/06 03:24:37;;;;;;;3.60;3.40;;;25.20;41.80;;;;;;5034866;28;20451;-88
2022/03/06 03:27:04;;;;;;;3.53;3.33;;;25.20;41.80;;;;;;5034857;28;20941;-87
2022/03/06 03:29:31;;;;;;;3.40;3.20;;;25.20;41.80;;;;;;5034641;28;20938;-85
2022/03/06 03:31:59;;;;;;;3.40;3.20;;;25.20;41.80;;;;;;5034656;28;20439;-88
2022/03/06 03:34:26;;;;;;;3.30;3.10;;;25.30;41.90;;;;;;5034755;28;20831;-84
2022/03/06 03:36:52;;;;;;;4.27;3.87;;;25.20;41.80;;;;;;5034367;28;20477;-88
2022/03/06 03:39:19;;;;;;;3.47;3.27;;;25.20;41.80;;;;;;5034438;28;20471;-89
2022/03/06 03:41:46;;;;;;;3.87;3.60;;;25.20;41.80;;;;;;5034308;28;20443;-86
2022/03/06 03:44:13;;;;;;;3.50;3.30;;;25.20;41.70;;;;;;5034664;28;20778;-87
2022/03/06 03:46:39;;;;;;;3.93;3.57;;;25.20;41.70;;;;;;5034391;28;20442;-88
2022/03/06 03:49:07;;;;;;;3.30;3.10;;;25.20;41.70;;;;;;5034448;28;20446;-83
2022/03/06 03:51:34;;;;;;;3.30;3.10;;;25.20;41.70;;;;;;5040368;28;20523;-88
2022/03/06 03:54:01;;;;;;;3.20;3.00;;;25.30;41.80;;;;;;5054165;28;20438;-84
2022/03/06 03:56:29;;;;;;;3.27;3.07;;;25.20;41.70;;;;;;5054061;28;20537;-88
2022/03/06 03:58:55;;;;;;;3.20;3.00;;;25.20;41.70;;;;;;5054077;28;20504;-84
2022/03/06 04:01:22;;;;;;;3.87;3.60;;;25.20;41.60;;;;;;5054211;28;20438;-87
2022/03/06 04:03:49;;;;;;;3.67;3.47;;;25.30;41.60;;;;;;5054168;28;20437;-84
2022/03/06 04:06:17;;;;;;;3.50;3.30;;;25.20;41.60;;;;;;5053978;28;20838;-83
2022/03/06 04:08:44;;;;;;;3.30;3.10;;;25.20;41.60;;;;;;5054549;28;20445;-83
2022/03/06 04:11:11;;;;;;;3.33;3.13;;;25.20;41.60;;;;;;5053850;28;20458;-89
2022/03/06 04:13:37;;;;;;;3.50;3.30;;;25.20;41.60;;;;;;5053805;28;20437;-83
2022/03/06 04:16:05;;;;;;;3.57;3.37;;;25.20;41.60;;;;;;5054258;28;20442;-88
2022/03/06 04:18:31;;;;;;;3.10;2.90;;;25.20;41.60;;;;;;5053659;28;20481;-84
2022/03/06 04:20:58;;;;;;;3.30;3.10;;;25.20;41.60;;;;;;5053907;28;20446;-84
2022/03/06 04:23:26;;;;;;;3.50;3.30;;;25.20;41.60;;;;;;5053720;28;20454;-84
2022/03/06 04:25:53;;;;;;;3.60;3.30;;;25.20;41.60;;;;;;5054191;28;20437;-88
2022/03/06 04:28:20;;;;;;;4.00;3.70;;;25.20;41.70;;;;;;5053868;28;20471;-89
2022/03/06 04:30:46;;;;;;;3.23;3.03;;;25.20;41.60;;;;;;5053848;28;20448;-88
2022/03/06 04:33:13;;;;;;;3.33;3.13;;;25.20;41.60;;;;;;5053653;28;20956;-84
2022/03/06 04:35:40;;;;;;;3.30;3.10;;;25.20;41.70;;;;;;5053523;28;20445;-83
2022/03/06 04:38:06;;;;;;;3.40;3.20;;;25.20;41.70;;;;;;5053414;28;20847;-87
2022/03/06 04:40:35;;;;;;;3.33;3.13;;;25.20;41.60;;;;;;5052853;28;20470;-89
2022/03/06 04:43:01;;;;;;;3.27;3.07;;;25.20;41.60;;;;;;5053271;28;20446;-84
2022/03/06 04:45:28;;;;;;;3.50;3.30;;;25.20;41.60;;;;;;5053290;28;20437;-89
2022/03/06 04:47:55;;;;;;;3.93;3.63;;;25.20;41.50;;;;;;5053324;28;20979;-83
2022/03/06 04:50:22;;;;;;;3.87;3.57;;;25.20;41.40;;;;;;5053568;28;20442;-89
2022/03/06 04:52:49;;;;;;;3.67;3.40;;;25.20;41.30;;;;;;5053239;28;20470;-88
2022/03/06 04:55:15;;;;;;;3.40;3.20;;;25.20;41.30;;;;;;5053202;28;20449;-84
2022/03/06 04:57:46;;;;;;;3.37;3.07;;;25.30;41.30;;;;;;5053207;28;20482;-84
2022/03/06 05:00:14;;;;;;;3.80;3.60;;;25.30;41.20;;;;;;5053147;28;20450;-84
2022/03/06 05:02:41;;;;;;;3.57;3.27;;;25.30;41.20;;;;;;5053233;28;20485;-83
2022/03/06 05:05:09;;;;;;;3.90;3.70;;;25.30;41.30;;;;;;5053181;28;20438;-85
2022/03/06 05:07:36;;;;;;;3.30;3.10;;;25.30;41.20;;;;;;5053327;28;20444;-84
2022/03/06 05:10:07;;;;;;;3.43;3.23;;;25.30;41.30;;;;;;5053105;28;20462;-89
2022/03/06 05:12:34;;;;;;;3.37;3.17;;;25.40;41.20;;;;;;5053347;28;20477;-89
2022/03/06 05:15:03;;;;;;;3.03;2.83;;;25.40;41.10;;;;;;5053336;28;20453;-84
2022/03/06 05:17:30;;;;;;;3.10;2.90;;;25.40;41.10;;;;;;5052861;28;20484;-88
2022/03/06 05:19:57;;;;;;;3.77;3.57;;;25.40;41.10;;;;;;5053127;28;20445;-84
2022/03/06 05:22:23;;;;;;;3.30;3.10;;;25.50;41.20;;;;;;5052950;28;20936;-88
2022/03/06 05:24:50;;;;;;;3.60;3.40;;;25.40;41.00;;;;;;5053137;28;20441;-88
2022/03/06 05:27:17;;;;;;;3.47;3.27;;;25.50;41.00;;;;;;5053119;28;20444;-88
2022/03/06 05:29:43;;;;;;;3.53;3.33;;;25.50;41.00;;;;;;5053121;28;20434;-84
2022/03/06 05:32:11;;;;;;;3.67;3.37;;;25.60;41.10;;;;;;5053211;28;20822;-89
2022/03/06 05:34:38;;;;;;;3.40;3.20;;;25.60;41.00;;;;;;5052972;28;20453;-84
2022/03/06 05:37:05;;;;;;;3.00;2.80;;;25.50;41.00;;;;;;5053042;28;20449;-87
2022/03/06 05:39:32;;;;;;;3.80;3.60;;;25.60;41.00;;;;;;5052634;28;20498;-89
2022/03/06 05:41:58;;;;;;;3.90;3.70;;;25.50;41.00;;;;;;5052647;28;20446;-84
2022/03/06 05:44:26;;;;;;;3.97;3.67;;;25.50;41.00;;;;;;5052692;28;20937;-87
2022/03/06 05:46:53;;;;;;;3.60;3.40;;;25.50;40.90;;;;;;5052932;28;20433;-84
2022/03/06 05:49:21;;;;;;;3.70;3.50;;;25.60;41.00;;;;;;5052920;28;20441;-89
2022/03/06 05:51:48;;;;;;;3.67;3.47;;;25.60;40.90;;;;;;5052500;28;20474;-84
2022/03/06 05:54:15;;;;;;;3.67;3.37;;;25.60;40.90;;;;;;5055369;28;20448;-87
2022/03/06 05:56:42;;;;;;;3.37;3.17;;;25.60;40.90;;;;;;5056380;28;20473;-88
2022/03/06 05:59:09;;;;;;;3.80;3.60;;;25.70;41.00;;;;;;5056916;28;20481;-83
2022/03/06 06:01:36;;;;;;;3.30;3.10;;;25.70;40.90;;;;;;5056348;28;20442;-84
2022/03/06 06:04:03;;;;;;;3.00;2.80;;;25.70;41.50;;;;;;5056271;28;20496;-88
2022/03/06 06:06:31;;;;;;;3.23;3.03;;;25.70;40.80;;;;;;5056503;28;20442;-88
2022/03/06 06:08:58;;;;;;;3.57;3.33;;;25.70;40.80;;;;;;5056238;28;20446;-88
2022/03/06 06:11:25;;;;;;;3.30;3.10;;;25.70;40.80;;;;;;5056344;28;20453;-88
2022/03/06 06:13:51;;;;;;;3.87;3.67;;;25.60;40.80;;;;;;5056230;28;21060;-87
2022/03/06 06:16:18;;;;;;;3.30;3.10;;;25.60;40.80;;;;;;5055934;28;20449;-84
2022/03/06 06:18:45;;;;;;;3.40;3.20;;;25.60;40.90;;;;;;5055742;28;20492;-83
2022/03/06 06:21:13;;;;;;;3.40;3.20;;;25.60;40.80;;;;;;5056540;28;20453;-88
2022/03/06 06:23:41;;;;;;;3.53;3.30;;;25.60;40.80;;;;;;5056026;28;20438;-88
2022/03/06 06:26:08;;;;;;;3.50;3.20;;;25.70;40.90;;;;;;5056049;28;20943;-88
2022/03/06 06:28:34;;;;;;;3.60;3.30;;;25.60;40.80;;;;;;5055923;28;20437;-84
2022/03/06 06:31:01;;;;;;;3.07;2.87;;;25.60;40.80;;;;;;5056113;28;20442;-83
2022/03/06 06:33:28;;;;;;;3.80;3.50;;;25.70;40.80;;;;;;5055876;28;20441;-87
2022/03/06 06:35:55;;;;;;;3.87;3.57;;;25.70;40.70;;;;;;5055690;28;20630;-83
2022/03/06 06:38:22;;;;;;;3.23;3.03;;;25.80;40.80;;;;;;5055823;28;20840;-83
2022/03/06 06:40:51;;;;;;;3.30;3.10;;;25.60;40.80;;;;;;5055542;28;20473;-83
2022/03/06 06:43:18;;;;;;;3.20;3.00;;;25.60;40.80;;;;;;5055769;28;20446;-83
2022/03/06 06:45:45;;;;;;;3.80;3.60;;;25.60;40.80;;;;;;5055708;28;20456;-87
2022/03/06 06:48:12;;;;;;;2.90;2.80;;;25.60;40.70;;;;;;5055316;28;20438;-87
2022/03/06 06:50:38;;;;;;;3.40;3.20;;;25.70;40.70;;;;;;5055626;28;20453;-88
2022/03/06 06:53:05;;;;;;;3.40;3.10;;;25.70;40.70;;;;;;5055250;28;20473;-85
2022/03/06 06:55:34;;;;;;;3.20;3.00;;;25.70;40.80;;;;;;5055314;28;20442;-84
2022/03/06 06:58:03;;;;;;;2.77;2.57;;;25.70;40.70;;;;;;5055133;28;20968;-87
2022/03/06 07:00:30;;;;;;;3.13;2.93;;;25.70;40.70;;;;;;5055402;28;20807;-83
2022/03/06 07:02:57;;;;;;;3.60;3.40;;;25.70;40.60;;;;;;5055489;28;20452;-84
2022/03/06 07:05:23;;;;;;;3.30;3.10;;;25.70;40.60;;;;;;5055073;28;20452;-83
2022/03/06 07:07:50;;;;;;;4.00;3.70;;;25.70;40.60;;;;;;5055399;28;20441;-88
2022/03/06 07:10:17;;;;;;;2.80;2.60;;;25.70;40.50;;;;;;5055205;28;20457;-84
2022/03/06 07:12:45;;;;;;;3.47;3.27;;;25.70;40.50;;;;;;5055058;28;20917;-88
2022/03/06 07:15:15;;;;;;;3.53;3.33;;;25.70;40.50;;;;;;5054943;28;20446;-88
2022/03/06 07:17:42;;;;;;;3.13;2.93;;;25.70;40.60;;;;;;5054803;28;20453;-88
2022/03/06 07:20:10;;;;;;;3.43;3.23;;;25.70;40.60;;;;;;5055030;28;20450;-83
2022/03/06 07:22:37;;;;;;;3.37;3.17;;;25.70;40.50;;;;;;5055085;28;20446;-83
2022/03/06 07:25:05;;;;;;;3.43;3.23;;;25.70;40.40;;;;;;5054537;28;20441;-84
2022/03/06 07:27:31;;;;;;;3.30;3.10;;;25.80;40.50;;;;;;5055185;28;20433;-88
2022/03/06 07:29:58;;;;;;;3.27;3.07;;;25.80;40.50;;;;;;5054675;28;20442;-88
2022/03/06 07:32:26;;;;;;;3.30;3.00;;;25.80;40.50;;;;;;5054611;28;20434;-84
2022/03/06 07:34:53;;;;;;;3.50;3.30;;;25.80;40.40;;;;;;5054645;28;20438;-83
2022/03/06 07:37:20;;;;;;;2.87;2.67;;;25.80;40.40;;;;;;5054588;28;20438;-88
2022/03/06 07:39:47;;;;;;;3.70;3.40;;;25.80;40.40;;;;;;5054386;28;20500;-87
2022/03/06 07:42:13;;;;;;;3.07;2.87;;;25.80;40.40;;;;;;5054489;28;20445;-88
2022/03/06 07:44:40;;;;;;;3.43;3.23;;;25.80;40.40;;;;;;5054469;28;20512;-84
2022/03/06 07:47:08;;;;;;;3.47;3.27;;;25.80;40.40;;;;;;5054382;28;20438;-84
2022/03/06 07:49:36;;;;;;;2.90;2.70;;;25.80;40.40;;;;;;5054539;28;20449;-88
2022/03/06 07:52:03;;;;;;;3.10;2.90;;;26.00;40.50;;;;;;5043861;28;20462;-88
2022/03/06 07:54:30;;;;;;;3.40;3.20;;;25.80;40.30;;;;;;5034126;28;20462;-87
2022/03/06 07:56:57;;;;;;;3.20;3.00;;;25.90;40.40;;;;;;5034347;28;20445;-84
2022/03/06 07:59:25;;;;;;;3.57;3.37;;;25.90;40.40;;;;;;5034346;28;20861;-89
2022/03/06 08:01:52;;;;;;;2.80;2.60;;;25.90;40.30;;;;;;5034350;28;20435;-89
2022/03/06 08:04:19;;;;;;;3.30;3.10;;;25.90;40.30;;;;;;5034348;28;20446;-83
2022/03/06 08:06:48;;;;;;;3.67;3.37;;;25.90;40.30;;;;;;5034218;28;20466;-88
2022/03/06 08:09:14;;;;;;;3.63;3.43;;;26.00;40.30;;;;;;5034289;28;20466;-84
2022/03/06 08:11:41;;;;;;;3.07;2.87;;;25.90;40.30;;;;;;5034160;28;20438;-87
2022/03/06 08:14:08;;;;;;;2.70;2.50;;;26.00;40.30;;;;;;5034013;28;20439;-91
2022/03/06 08:16:35;;;;;;;4.10;3.90;;;25.90;40.40;;;;;;5033659;28;20465;-88
2022/03/06 08:19:02;;;;;;;6.80;4.20;;;26.00;39.50;;;;;;5034039;28;20486;-87
2022/03/06 08:21:28;;;;;;;4.93;4.53;;;26.00;39.10;;;;;;5033777;28;20439;-87
2022/03/06 08:23:57;;;;;;;5.13;4.37;;;26.00;38.80;;;;;;5033844;28;20441;-89
2022/03/06 08:26:24;;;;;;;4.23;3.93;;;26.10;38.80;;;;;;5033698;28;20466;-87
2022/03/06 08:28:51;;;;;;;4.50;4.13;;;26.10;38.90;;;;;;5029309;28;20900;-86
2022/03/06 08:31:18;;;;;;;3.63;3.43;;;26.10;38.80;;;;;;5013995;28;20463;-88
2022/03/06 08:33:46;;;;;;;4.53;4.23;;;26.30;39.00;;;;;;5013963;28;20451;-89
2022/03/06 08:36:13;;;;;;;3.90;3.60;;;26.20;38.90;;;;;;5014170;28;20815;-87
2022/03/06 08:38:40;;;;;;;5.10;3.47;;;26.20;39.30;;;;;;5013855;28;20479;-87
2022/03/06 08:41:08;;;;;;;4.80;4.40;;;26.30;39.60;;;;;;5014084;28;20488;-92
2022/03/06 08:43:35;;;;;;;4.00;3.70;;;26.30;39.20;;;;;;5014186;28;20439;-91
2022/03/06 08:46:03;;;;;;;3.90;3.70;;;26.30;39.50;;;;;;5013945;28;20454;-93
2022/03/06 08:48:30;;;;;;;4.07;3.20;;;26.50;39.70;;;;;;5013699;28;20951;-92
2022/03/06 08:50:57;;;;;;;3.20;3.00;;;26.80;39.50;;;;;;5013866;28;20454;-93
2022/03/06 08:53:23;;;;;;;3.10;2.90;;;27.20;39.40;;;;;;5013983;28;20446;-93
2022/03/06 08:55:50;;;;;;;3.37;3.13;;;27.70;39.20;;;;;;5014239;28;20818;-95
2022/03/06 08:58:18;;;;;;;3.20;3.00;;;28.20;39.00;;;;;;5013944;28;20450;-95
2022/03/06 09:00:45;;;;;;;6.67;3.27;;;28.70;38.60;;;;;;5014014;28;20455;-92
2022/03/06 09:03:12;;;;;;;3.33;3.13;;;29.20;38.50;;;;;;5013512;28;20454;-95
2022/03/06 09:05:40;;;;;;;2.90;2.60;;;29.40;38.50;;;;;;5014464;28;20443;-93
2022/03/06 09:08:07;;;;;;;3.07;2.60;;;29.40;38.30;;;;;;5013962;28;20443;-93
2022/03/06 09:10:35;;;;;;;3.10;2.90;;;29.60;38.30;;;;;;5013870;28;20487;-93
2022/03/06 09:13:01;;;;;;;3.30;3.10;;;29.80;38.30;;;;;;5013802;28;20938;-88
2022/03/06 09:15:31;;;;;;;3.23;3.03;;;29.90;38.80;;;;;;5013963;28;20443;-90
2022/03/06 09:17:58;;;;;;;4.53;4.23;;;30.20;38.00;;;;;;5014647;28;20873;-93
2022/03/06 09:20:25;;;;;;;4.03;3.07;;;30.60;36.80;;;;;;5014624;28;20487;-93
2022/03/06 09:22:52;;;;;;;3.30;3.00;;;31.00;37.00;;;;;;5014745;28;20448;-91
2022/03/06 09:25:19;;;;;;;3.57;3.37;;;31.40;36.60;;;;;;5013953;28;20466;-91
2022/03/06 09:27:46;;;;;;;7.53;3.27;;;31.50;36.70;;;;;;5016445;28;20523;-86
2022/03/06 09:30:14;;;;;;;3.47;3.27;;;31.70;36.20;;;;;;5022467;28;20446;-88
2022/03/06 09:32:42;;;;;;;4.10;3.80;;;31.50;35.00;;;;;;5024949;28;20807;-86
2022/03/06 09:35:10;;;;;;;5.30;3.80;;;31.50;35.30;;;;;;5016916;28;20444;-89
2022/03/06 09:37:39;;;;;;;3.10;2.90;;;31.20;35.40;;;;;;5016864;28;20795;-89
2022/03/06 09:40:07;;;;;;;3.30;3.10;;;30.90;36.30;;;;;;5017299;28;20579;-93
2022/03/06 09:42:35;;;;;;;11.23;5.60;;;30.60;36.30;;;;;;5018260;28;20501;-91
2022/03/06 09:45:05;;;;;;;4.57;4.17;;;30.20;35.30;;;;;;5017488;28;20946;-91
2022/03/06 09:47:33;;;;;;;4.27;3.87;;;29.80;35.50;;;;;;5017428;28;20450;-90
2022/03/06 09:50:02;;;;;;;4.17;3.87;;;29.50;36.30;;;;;;5017863;28;20519;-91
2022/03/06 09:52:29;;;;;;;4.57;3.90;;;29.30;36.50;;;;;;5017046;28;20471;-91
2022/03/06 09:54:56;;;;;;;6.13;3.83;;;29.10;36.80;;;;;;5017158;28;20455;-93
2022/03/06 09:57:23;;;;;;;4.03;3.73;;;29.00;36.90;;;;;;5017355;28;20439;-91
2022/03/06 09:59:50;;;;;;;4.07;3.77;;;28.80;37.00;;;;;;5017782;28;20491;-91
2022/03/06 10:02:18;;;;;;;4.03;3.83;;;28.70;37.00;;;;;;5017485;28;20447;-91
2022/03/06 10:04:46;;;;;;;3.80;3.50;;;28.60;37.20;;;;;;5017987;28;20443;-91
2022/03/06 10:07:17;;;;;;;3.93;3.60;;;28.60;37.40;;;;;;5017809;28;20456;-91
2022/03/06 10:09:45;;;;;;;4.40;3.80;;;28.50;37.40;;;;;;5016830;28;20470;-90
2022/03/06 10:12:22;;;;;;;4.30;3.97;;;28.40;38.00;;;;;;5017413;28;20447;-91
2022/03/06 10:14:51;;;;;;;5.40;4.20;;;28.40;37.40;;;;;;5017555;28;20465;-91
2022/03/06 10:17:19;;;;;;;5.33;3.80;;;28.30;37.50;;;;;;5017503;28;20930;-91
2022/03/06 10:19:55;;;;;;;4.63;4.23;;;28.40;37.60;;;;;;5017176;28;20487;-91
2022/03/06 10:22:25;;;;;;;4.30;3.90;;;28.30;37.70;;;;;;5017344;28;20423;-91
2022/03/06 10:24:53;;;;;;;3.87;3.67;;;28.20;37.60;;;;;;5017217;28;20444;-90
2022/03/06 10:27:49;;;;;;;4.13;3.83;;;28.30;37.80;;;;;;5016874;28;20542;-91
2022/03/06 10:30:31;;;;;;;3.50;3.30;;;28.20;37.80;;;;;;5017426;28;20439;-91
2022/03/06 10:33:00;;;;;;;3.53;3.30;;;28.20;37.70;;;;;;5017286;28;20442;-91
2022/03/06 10:35:37;;;;;;;4.10;3.80;;;28.10;37.80;;;;;;5017696;28;20448;-91
2022/03/06 10:38:22;;;;;;;3.13;2.93;;;28.30;37.90;;;;;;5016876;28;20522;-91
2022/03/06 10:40:50;;;;;;;4.23;3.93;;;28.10;37.80;;;;;;5016779;28;20510;-91
2022/03/06 10:43:19;;;;;;;4.20;3.80;;;28.20;37.90;;;;;;5016974;28;20456;-91
2022/03/06 10:45:47;;;;;;;4.20;3.90;;;28.10;37.70;;;;;;5016217;28;20455;-91
2022/03/06 10:48:13;;;;;;;3.93;3.53;;;28.20;37.80;;;;;;5017512;28;20456;-91
2022/03/06 10:50:41;;;;;;;3.23;3.03;;;28.10;37.80;;;;;;5016610;28;20447;-91
2022/03/06 10:53:25;;;;;;;3.40;3.20;;;28.10;37.70;;;;;;5015890;28;20479;-91
2022/03/06 10:55:53;;;;;;;3.90;3.60;;;28.10;37.60;;;;;;5016492;28;20447;-90
2022/03/06 10:58:20;;;;;;;3.93;3.63;;;28.10;37.70;;;;;;5016670;28;20806;-90
2022/03/06 11:00:48;;;;;;;4.00;3.10;;;28.10;37.60;;;;;;5016413;28;20499;-91
2022/03/06 11:03:15;;;;;;;3.60;3.40;;;28.20;37.80;;;;;;5016650;28;20454;-90
2022/03/06 11:05:44;;;;;;;3.50;3.20;;;28.10;37.80;;;;;;5016630;28;20443;-93
2022/03/06 11:08:13;;;;;;;3.57;3.37;;;28.20;37.80;;;;;;5016290;28;20470;-93
2022/03/06 11:10:42;;;;;;;3.20;2.90;;;28.10;37.80;;;;;;5015646;28;20478;-91
2022/03/06 11:13:12;;;;;;;3.70;3.40;;;28.00;37.70;;;;;;5015986;28;20931;-91
2022/03/06 11:15:38;;;;;;;3.47;3.20;;;28.10;38.30;;;;;;5016991;28;20452;-93
2022/03/06 11:18:06;;;;;;;3.20;2.90;;;28.20;37.90;;;;;;5016561;28;20451;-91
2022/03/06 11:20:34;;;;;;;3.50;3.30;;;28.00;37.80;;;;;;5016334;28;20775;-91
2022/03/06 11:23:14;;;;;;;3.50;3.20;;;28.00;37.90;;;;;;5015674;28;20466;-93
2022/03/06 11:25:52;;;;;;;3.30;3.07;;;28.00;38.00;;;;;;5015408;28;20919;-91
2022/03/06 11:28:28;;;;;;;3.60;3.40;;;27.90;38.10;;;;;;5016100;28;20471;-91
2022/03/06 11:30:59;;;;;;;4.20;3.90;;;27.90;38.10;;;;;;5015480;28;20442;-91
2022/03/06 11:33:26;;;;;;;3.57;3.33;;;27.80;37.90;;;;;;5015060;28;20982;-91
2022/03/06 11:35:53;;;;;;;3.13;2.93;;;27.80;38.00;;;;;;5015155;28;20951;-91
2022/03/06 11:38:20;;;;;;;3.63;3.40;;;27.70;38.10;;;;;;5015514;28;20455;-91
2022/03/06 11:40:51;;;;;;;3.40;3.20;;;27.70;38.80;;;;;;5015081;28;20506;-91
2022/03/06 11:43:42;;;;;;;3.30;3.00;;;27.60;38.20;;;;;;5015312;28;20519;-91
2022/03/06 11:46:17;;;;;;;3.77;3.47;;;27.60;38.10;;;;;;5014787;28;20990;-91
2022/03/06 11:49:11;;;;;;;2.90;2.70;;;27.60;38.80;;;;;;5014998;28;20435;-90
2022/03/06 11:51:42;;;;;;;3.23;3.03;;;27.50;38.30;;;;;;5013810;28;20502;-91
2022/03/06 11:54:10;;;;;;;3.77;3.47;;;27.40;38.30;;;;;;5015048;28;20448;-91
2022/03/06 11:57:00;;;;;;;3.33;2.93;;;27.40;38.10;;;;;;5015028;28;20439;-91
2022/03/06 11:59:35;;;;;;;4.20;3.90;;;27.40;38.20;;;;;;5014807;28;20436;-91
2022/03/06 12:02:07;;;;;;;3.33;3.13;;;27.40;38.20;;;;;;5014775;28;20474;-90
2022/03/06 12:04:35;;;;;;;3.00;2.80;;;27.40;38.20;;;;;;5014848;28;20455;-91
2022/03/06 12:07:05;;;;;;;3.90;3.50;;;27.40;38.20;;;;;;5029060;28;20809;-90
2022/03/06 12:09:33;;;;;;;3.43;3.13;;;27.40;38.20;;;;;;5036012;28;20474;-91
2022/03/06 12:12:03;;;;;;;3.10;2.90;;;27.50;38.10;;;;;;5022993;28;20436;-90
2022/03/06 12:14:33;;;;;;;3.00;2.80;;;27.40;38.30;;;;;;5024045;28;20439;-92
2022/03/06 12:17:24;;;;;;;3.07;2.87;;;27.40;38.10;;;;;;5037077;28;20545;-91
2022/03/06 12:20:14;;;;;;;2.90;2.70;;;27.40;38.10;;;;;;5034600;28;20478;-90
2022/03/06 12:22:49;;;;;;;2.60;2.40;;;27.40;38.30;;;;;;5036074;28;20849;-91
2022/03/06 12:25:24;;;;;;;2.70;2.60;;;27.40;38.30;;;;;;5035327;28;20453;-92
2022/03/06 12:28:34;;;;;;;2.90;2.70;;;27.30;38.40;;;;;;5036214;28;20450;-91
2022/03/06 12:31:32;;;;;;;3.23;3.03;;;27.30;38.50;;;;;;5031399;28;20793;-90
2022/03/06 12:34:00;;;;;;;2.73;2.57;;;27.30;38.50;;;;;;5015765;28;20939;-92
2022/03/06 12:36:27;;;;;;;2.80;2.60;;;27.30;38.50;;;;;;5014191;28;20917;-92
2022/03/06 12:39:03;;;;;;;2.93;2.73;;;27.30;38.60;;;;;;5026269;28;20471;-91
2022/03/06 12:41:31;;;;;;;3.00;2.67;;;27.40;38.90;;;;;;5035070;28;20486;-90
2022/03/06 12:44:01;;;;;;;2.77;2.57;;;27.40;38.80;;;;;;5035895;28;20447;-92
2022/03/06 12:46:29;;;;;;;2.57;2.37;;;27.40;38.60;;;;;;5035475;28;20449;-90
2022/03/06 12:48:56;;;;;;;3.17;2.97;;;27.40;38.70;;;;;;5030957;28;20446;-92
2022/03/06 12:51:48;;;;;;;2.53;2.30;;;27.20;38.60;;;;;;5035140;28;20478;-91
2022/03/06 12:54:23;;;;;;;2.57;2.40;;;27.40;38.50;;;;;;5019925;28;20458;-92